Eastern Wv Regional Shepherd Field
KMRB : now visible

Airfield :











YOU CAN JOIN US ON...

 
LOGIN :

Register | Disclaimer

   EN    FR    IT 

 









Legend :    VFR   Marginal VFR   IFR   Intensive IFR   Very Intensive IFR
Visi :
Ceiling :
>= 8 km
>= 3000ft
5 to 8 km
1000 to 3000 ft
1500m to 5 km
500 to 1000 ft
800 to 1500m
200 to 500 ft
< 800m
< 200 ft
Symbols :   Thunderstorms  Fog  Heavy snow  Heavy precipitations  Wind > 20 kt






- Airport Elevation : 565 ft


KMRB - Eastern Wv Regional Shepherd Field

CURRENT METAR :
  • 021253Z 00000KT 10SM OVC120 M04/M07 A3050 RMK AO2 SLP336 T10391067 $

EXPIRED METARs :
  • 021153Z 00000KT 10SM BKN120 M06/M08 A3051 RMK AO2 SLP338 T10561083 11044 21072 53011 $
  • 021053Z AUTO 00000KT 10SM CLR M06/M09 A3050 RMK AO2 SLP334 T10611089 $

TAF KMRB
Valid from the 02 at 12:00 until the 03 at 12:00 UTC


021136Z 0212/0312 09002KT P6SM SKC
FM021400 16006KT P6SM FEW250
FM021800 17007G15KT P6SM SCT250
FM030600 15008G16KT P6SM OVC100
KZDC FIR / North America



MET'MAP, your aeronautical weather chart ! - Copyright ORBIFLY December 2007 - Disclaimer

ORBIFLY MET'MAP TEAM :

Programming & Development : Alexandra Zaïnal
Original concept : Baudouin d'Aumeries
Technical & hardware support : Manuel Goepfert
Assistance : Marc-Olivier Méhu




SOURCES & CREDITS :

   NOAA       Earth
Advisory